createdAt,value
2022-09-26T00:00:21.267Z,2.30
2022-09-26T00:02:50.938Z,2.40
2022-09-26T00:05:20.594Z,2.60
2022-09-26T00:07:50.206Z,2.97
2022-09-26T00:10:20.066Z,2.63
2022-09-26T00:12:49.736Z,2.60
2022-09-26T00:15:21.900Z,2.80
2022-09-26T00:17:51.792Z,2.42
2022-09-26T00:20:21.662Z,2.90
2022-09-26T00:22:51.211Z,2.75
2022-09-26T00:25:21.054Z,2.40
2022-09-26T00:27:50.589Z,3.00
2022-09-26T00:30:22.741Z,2.95
2022-09-26T00:32:52.914Z,2.67
2022-09-26T00:35:22.571Z,2.97
2022-09-26T00:37:52.104Z,2.90
2022-09-26T00:40:27.143Z,3.47
2022-09-26T00:42:57.254Z,2.58
2022-09-26T00:45:33.390Z,2.50
2022-09-26T00:48:08.221Z,3.00
2022-09-26T00:50:40.649Z,2.90
2022-09-26T00:53:14.498Z,2.90
2022-09-26T00:55:48.393Z,3.13
2022-09-26T00:58:23.269Z,2.60
2022-09-26T01:00:56.305Z,2.55
2022-09-26T01:03:27.097Z,3.10
2022-09-26T01:05:57.671Z,3.03
2022-09-26T01:08:34.887Z,2.63
2022-09-26T01:11:05.629Z,3.17
2022-09-26T01:13:37.061Z,3.40
2022-09-26T01:16:09.719Z,2.92
2022-09-26T01:18:39.701Z,3.33
2022-09-26T01:21:28.217Z,2.85
2022-09-26T01:24:29.261Z,2.70
2022-09-26T01:27:18.669Z,3.13
2022-09-26T01:30:09.030Z,2.78
2022-09-26T01:32:57.363Z,2.63
2022-09-26T01:35:54.398Z,3.25
2022-09-26T01:38:33.363Z,2.92
2022-09-26T01:41:15.359Z,2.33
2022-09-26T01:43:53.069Z,2.88
2022-09-26T01:46:34.650Z,3.00
2022-09-26T01:49:14.342Z,2.58
2022-09-26T01:51:51.958Z,3.10
2022-09-26T01:54:26.028Z,2.72
2022-09-26T01:56:59.918Z,2.50
2022-09-26T01:59:33.934Z,2.67
2022-09-26T02:02:10.423Z,2.95
2022-09-26T02:04:44.320Z,2.60
2022-09-26T02:07:18.122Z,2.70
2022-09-26T02:09:52.329Z,2.53
2022-09-26T02:12:26.553Z,2.70
2022-09-26T02:15:00.902Z,2.45
2022-09-26T02:17:38.427Z,2.78
2022-09-26T02:20:15.062Z,3.00
2022-09-26T02:22:45.571Z,2.75
2022-09-26T02:25:16.709Z,2.60
2022-09-26T02:27:46.429Z,2.92
2022-09-26T02:30:16.642Z,2.60
2022-09-26T02:32:48.981Z,2.60
2022-09-26T02:35:31.963Z,3.17
2022-09-26T02:38:01.787Z,2.67
2022-09-26T02:40:40.767Z,2.70
2022-09-26T02:43:31.789Z,2.70
2022-09-26T02:46:12.474Z,2.47
2022-09-26T02:48:57.517Z,2.75
2022-09-26T02:51:49.910Z,2.80
2022-09-26T02:54:26.516Z,2.85
2022-09-26T02:57:11.565Z,2.97
2022-09-26T02:59:52.221Z,2.38
2022-09-26T03:02:27.179Z,3.03
2022-09-26T03:05:05.672Z,2.42
2022-09-26T03:07:45.324Z,2.63
2022-09-26T03:10:17.063Z,2.47
2022-09-26T03:12:53.228Z,2.47
2022-09-26T03:15:27.507Z,2.03
2022-09-26T03:18:03.622Z,2.80
2022-09-26T03:20:37.491Z,2.53
2022-09-26T03:25:36.922Z,2.45
2022-09-26T03:28:06.978Z,2.67
2022-09-26T03:30:36.913Z,2.35
2022-09-26T03:33:06.687Z,2.50
2022-09-26T03:35:38.828Z,3.42
2022-09-26T03:38:13.613Z,2.55
2022-09-26T03:40:44.450Z,2.22
2022-09-26T03:43:27.929Z,2.70
2022-09-26T03:46:00.588Z,2.15
2022-09-26T03:48:42.059Z,2.30
2022-09-26T03:51:16.527Z,2.55
2022-09-26T03:53:49.212Z,2.53
2022-09-26T03:56:22.606Z,2.53
2022-09-26T03:58:55.634Z,2.90
2022-09-26T04:01:39.590Z,2.30
2022-09-26T04:04:09.365Z,2.42
2022-09-26T04:06:42.246Z,2.97
2022-09-26T04:09:16.772Z,2.60
2022-09-26T04:11:49.328Z,2.47
2022-09-26T04:14:20.363Z,2.85
2022-09-26T04:16:54.508Z,2.55
2022-09-26T04:19:24.662Z,2.40
2022-09-26T04:21:57.929Z,2.63
2022-09-26T04:24:30.279Z,2.97
2022-09-26T04:27:13.296Z,2.85
2022-09-26T04:29:44.765Z,2.40
2022-09-26T04:32:17.130Z,2.63
2022-09-26T04:34:46.914Z,2.50
2022-09-26T04:37:21.179Z,2.67
2022-09-26T04:39:50.960Z,2.97
2022-09-26T04:42:20.879Z,2.80
2022-09-26T04:44:50.766Z,2.92
2022-09-26T04:47:20.726Z,3.60
2022-09-26T04:49:50.529Z,2.60
2022-09-26T04:52:22.953Z,2.80
2022-09-26T04:54:52.613Z,2.58
2022-09-26T04:57:22.178Z,3.13
2022-09-26T04:59:52.270Z,3.08
2022-09-26T05:02:22.015Z,3.13
2022-09-26T05:04:51.660Z,3.13
2022-09-26T05:07:23.938Z,3.03
2022-09-26T05:09:53.806Z,3.10
2022-09-26T05:12:23.442Z,2.67
2022-09-26T05:14:56.729Z,2.53
2022-09-26T05:17:30.282Z,3.22
2022-09-26T05:20:12.055Z,2.30
2022-09-26T05:22:47.751Z,2.67
2022-09-26T05:25:43.132Z,2.60
2022-09-26T05:28:17.741Z,3.28
2022-09-26T05:30:49.915Z,3.13
2022-09-26T05:33:30.832Z,2.95
2022-09-26T05:36:03.588Z,2.85
2022-09-26T05:38:42.732Z,2.85
2022-09-26T05:41:12.327Z,2.80
2022-09-26T05:43:44.410Z,3.42
2022-09-26T05:46:22.537Z,2.95
2022-09-26T05:48:58.296Z,2.90
2022-09-26T05:51:34.758Z,4.57
2022-09-26T05:54:16.660Z,3.30
2022-09-26T05:56:50.159Z,3.35
2022-09-26T05:59:24.273Z,4.00
2022-09-26T06:02:02.938Z,3.42
2022-09-26T06:04:33.736Z,3.20
2022-09-26T06:07:05.589Z,3.58
2022-09-26T06:09:38.228Z,3.83
2022-09-26T06:12:17.855Z,3.47
2022-09-26T06:14:47.905Z,3.40
2022-09-26T06:17:18.438Z,3.85
2022-09-26T06:19:48.483Z,3.15
2022-09-26T06:22:18.965Z,3.63
2022-09-26T06:24:51.941Z,3.90
2022-09-26T06:27:22.631Z,3.28
2022-09-26T06:29:55.719Z,3.05
2022-09-26T06:32:25.683Z,3.40
2022-09-26T06:34:59.081Z,3.53
2022-09-26T06:37:28.678Z,3.75
2022-09-26T06:40:04.144Z,3.97
2022-09-26T06:42:38.198Z,3.40
2022-09-26T06:45:10.020Z,3.83
2022-09-26T06:47:41.857Z,3.40
2022-09-26T06:50:16.206Z,3.50
2022-09-26T06:52:46.316Z,3.70
2022-09-26T06:55:19.296Z,3.40
2022-09-26T06:57:49.213Z,3.33
2022-09-26T07:00:19.581Z,3.15
2022-09-26T07:02:53.626Z,3.35
2022-09-26T07:05:28.175Z,2.90
2022-09-26T07:07:58.563Z,4.43
2022-09-26T07:10:32.295Z,3.35
2022-09-26T07:15:38.592Z,2.97
2022-09-26T07:18:12.207Z,3.38
2022-09-26T07:20:47.444Z,3.17
2022-09-26T07:23:20.222Z,3.00
2022-09-26T07:25:54.091Z,3.70
2022-09-26T07:28:24.443Z,2.90
2022-09-26T07:31:02.360Z,3.22
2022-09-26T07:33:41.236Z,3.03
2022-09-26T07:36:11.504Z,3.30
2022-09-26T07:38:41.111Z,3.10
2022-09-26T07:41:14.138Z,3.63
2022-09-26T07:46:46.720Z,3.10
2022-09-26T07:49:28.904Z,2.85
2022-09-26T07:52:00.742Z,2.72
2022-09-26T07:54:30.226Z,2.97
2022-09-26T07:57:04.948Z,3.20
2022-09-26T07:59:36.856Z,3.17
2022-09-26T08:02:06.683Z,3.38
2022-09-26T08:04:36.279Z,3.25
2022-09-26T08:07:06.011Z,3.22
2022-09-26T08:09:36.554Z,4.03
2022-09-26T08:12:08.864Z,3.78
2022-09-26T08:14:39.885Z,3.25
2022-09-26T08:17:14.085Z,3.60
2022-09-26T08:19:44.312Z,3.67
2022-09-26T08:22:15.350Z,3.95
2022-09-26T08:24:50.383Z,4.10
2022-09-26T08:27:22.751Z,3.50
2022-09-26T08:29:52.745Z,3.72
2022-09-26T08:32:23.964Z,3.85
2022-09-26T08:34:53.778Z,3.58
2022-09-26T08:37:23.394Z,4.32
2022-09-26T08:39:53.254Z,4.28
2022-09-26T08:42:43.287Z,4.15
2022-09-26T08:45:51.681Z,3.75
2022-09-26T08:48:47.598Z,3.92
2022-09-26T08:51:29.371Z,4.50
2022-09-26T08:54:05.835Z,4.30
2022-09-26T08:56:42.196Z,4.97
2022-09-26T08:59:20.931Z,4.65
2022-09-26T09:01:52.884Z,4.30
2022-09-26T09:04:27.273Z,3.90
2022-09-26T09:07:07.297Z,4.20
2022-09-26T09:09:36.924Z,5.30
2022-09-26T09:12:17.065Z,4.82
2022-09-26T09:15:24.613Z,4.20
2022-09-26T09:18:12.656Z,5.18
2022-09-26T09:20:56.904Z,4.85
2022-09-26T09:23:38.492Z,5.22
2022-09-26T09:29:19.904Z,4.45
2022-09-26T09:31:52.790Z,4.28
2022-09-26T09:34:27.936Z,4.60
2022-09-26T09:37:00.750Z,4.07
2022-09-26T09:39:34.247Z,5.27
2022-09-26T09:42:08.793Z,5.28
2022-09-26T09:44:46.884Z,5.35
2022-09-26T09:47:21.668Z,4.63
2022-09-26T09:49:52.912Z,4.93
2022-09-26T09:52:45.108Z,5.25
2022-09-26T09:55:25.927Z,4.55
2022-09-26T09:58:10.092Z,5.13
2022-09-26T10:00:49.057Z,5.40
2022-09-26T10:03:29.708Z,5.30
2022-09-26T10:06:02.922Z,4.45
2022-09-26T10:08:35.057Z,4.68
2022-09-26T10:11:14.428Z,4.38
2022-09-26T10:13:45.456Z,3.90
2022-09-26T10:16:16.536Z,4.25
2022-09-26T10:19:03.640Z,4.68
2022-09-26T10:21:39.383Z,4.35
2022-09-26T10:24:24.070Z,4.55
2022-09-26T10:26:54.532Z,4.53
2022-09-26T10:29:27.611Z,4.40
2022-09-26T10:32:01.750Z,4.88
2022-09-26T10:34:35.646Z,4.45
2022-09-26T10:37:24.114Z,4.00
2022-09-26T10:40:10.910Z,4.22
2022-09-26T10:42:40.666Z,4.28
2022-09-26T10:45:17.593Z,3.78
2022-09-26T10:47:51.470Z,4.70
2022-09-26T10:50:29.524Z,4.10
2022-09-26T10:53:05.257Z,3.40
2022-09-26T10:55:40.228Z,3.60
2022-09-26T10:58:17.555Z,3.90
2022-09-26T11:00:51.699Z,3.60
2022-09-26T11:03:24.830Z,3.95
2022-09-26T11:05:57.486Z,3.88
2022-09-26T11:08:29.601Z,4.05
2022-09-26T11:11:01.301Z,3.88
2022-09-26T11:13:32.812Z,3.92
2022-09-26T11:16:04.478Z,3.95
2022-09-26T11:18:51.107Z,4.30
2022-09-26T11:21:29.838Z,3.95
2022-09-26T11:24:06.235Z,4.15
2022-09-26T11:26:42.050Z,4.25
2022-09-26T11:29:20.329Z,4.53
2022-09-26T11:31:50.231Z,4.10
2022-09-26T11:34:27.637Z,3.67
2022-09-26T11:37:17.126Z,5.38
2022-09-26T11:40:06.081Z,2.92
2022-09-26T11:42:55.799Z,3.03
2022-09-26T11:45:37.741Z,3.13
2022-09-26T11:48:31.747Z,2.65
2022-09-26T11:51:08.183Z,3.00
2022-09-26T11:54:04.459Z,2.50
2022-09-26T11:56:49.446Z,2.95
2022-09-26T11:59:40.455Z,2.80
2022-09-26T12:02:40.007Z,2.53
2022-09-26T12:05:43.885Z,2.80
2022-09-26T12:08:25.271Z,3.20
2022-09-26T12:11:07.238Z,3.40
2022-09-26T12:13:52.503Z,4.18
2022-09-26T12:16:29.314Z,3.60
2022-09-26T12:19:08.114Z,3.92
2022-09-26T12:22:09.900Z,4.80
2022-09-26T12:24:46.060Z,4.72
2022-09-26T12:27:27.221Z,6.03
2022-09-26T12:30:06.946Z,5.35
2022-09-26T12:32:58.355Z,5.13
2022-09-26T12:35:46.854Z,4.88
2022-09-26T12:38:34.980Z,4.97
2022-09-26T12:41:32.956Z,4.70
2022-09-26T12:44:23.625Z,4.80
2022-09-26T12:47:06.504Z,4.57
2022-09-26T12:49:59.887Z,4.20
2022-09-26T12:52:44.828Z,3.77
2022-09-26T12:55:34.222Z,4.47
2022-09-26T12:58:17.296Z,4.05
2022-09-26T13:01:00.561Z,3.30
2022-09-26T13:03:58.222Z,3.53
2022-09-26T13:07:17.950Z,3.65
2022-09-26T13:10:06.478Z,4.22
2022-09-26T13:12:51.099Z,3.78
2022-09-26T13:15:31.331Z,3.83
2022-09-26T13:18:08.943Z,3.75
2022-09-26T13:20:45.145Z,3.60
2022-09-26T13:23:23.957Z,3.30
2022-09-26T13:25:57.231Z,3.33
2022-09-26T13:28:37.965Z,3.80
2022-09-26T13:31:18.988Z,3.33
2022-09-26T13:33:57.556Z,3.13
2022-09-26T13:36:31.276Z,3.38
2022-09-26T13:41:45.701Z,3.20
2022-09-26T13:44:29.845Z,3.85
2022-09-26T13:47:13.166Z,3.65
2022-09-26T13:49:59.277Z,2.33
2022-09-26T13:52:42.132Z,3.45
2022-09-26T13:55:19.486Z,2.88
2022-09-26T13:58:07.364Z,3.50
2022-09-26T14:00:57.694Z,3.13
2022-09-26T14:03:48.259Z,3.33
2022-09-26T14:06:41.219Z,3.17
2022-09-26T14:09:24.137Z,5.15
2022-09-26T14:12:20.099Z,4.15
2022-09-26T14:15:09.817Z,5.10
2022-09-26T14:18:10.838Z,4.10
2022-09-26T14:21:05.631Z,5.47
2022-09-26T14:23:46.632Z,5.72
2022-09-26T14:26:21.579Z,5.30
2022-09-26T14:28:56.535Z,5.35
2022-09-26T14:32:01.806Z,4.22
2022-09-26T14:34:35.476Z,4.43
2022-09-26T14:39:46.434Z,4.82
2022-09-26T14:42:25.690Z,5.60
2022-09-26T14:45:00.534Z,5.30
2022-09-26T14:47:33.266Z,5.18
2022-09-26T14:50:07.067Z,5.65
2022-09-26T14:52:39.898Z,4.57
2022-09-26T14:55:19.421Z,4.43
2022-09-26T14:57:49.669Z,4.97
2022-09-26T15:00:41.783Z,4.28
2022-09-26T15:03:20.188Z,5.57
2022-09-26T15:05:50.718Z,3.83
2022-09-26T15:08:28.114Z,3.22
2022-09-26T15:11:01.738Z,3.17
2022-09-26T15:16:22.070Z,4.25
2022-09-26T15:18:55.532Z,3.17
2022-09-26T15:21:35.639Z,2.90
2022-09-26T15:24:07.619Z,2.50
2022-09-26T15:26:40.307Z,2.83
2022-09-26T15:29:10.307Z,2.65
2022-09-26T15:31:42.383Z,2.88
2022-09-26T15:34:19.269Z,4.60
2022-09-26T15:36:53.975Z,3.33
2022-09-26T15:39:41.353Z,2.92
2022-09-26T15:42:41.816Z,2.70
2022-09-26T15:45:27.276Z,3.40
2022-09-26T15:47:59.084Z,2.60
2022-09-26T15:50:32.522Z,2.70
2022-09-26T15:53:08.109Z,2.78
2022-09-26T15:55:42.721Z,2.70
2022-09-26T15:58:21.319Z,2.70
2022-09-26T16:00:54.511Z,2.42
2022-09-26T16:03:57.553Z,2.42
2022-09-26T16:06:30.614Z,3.10
2022-09-26T16:09:09.409Z,2.47
2022-09-26T16:11:47.559Z,2.83
2022-09-26T16:14:29.230Z,3.88
2022-09-26T16:17:06.197Z,2.58
2022-09-26T16:19:38.134Z,2.33
2022-09-26T16:22:36.602Z,3.20
2022-09-26T16:25:26.121Z,2.28
2022-09-26T16:28:03.071Z,2.97
2022-09-26T16:30:44.558Z,2.28
2022-09-26T16:33:31.711Z,3.05
2022-09-26T16:36:17.395Z,2.75
2022-09-26T16:38:53.051Z,1.90
2022-09-26T16:44:32.142Z,3.45
2022-09-26T16:47:09.269Z,5.28
2022-09-26T16:49:50.464Z,2.20
2022-09-26T16:52:32.888Z,3.33
2022-09-26T16:55:05.999Z,3.70
2022-09-26T16:57:37.935Z,2.40
2022-09-26T17:00:23.252Z,2.20
2022-09-26T17:02:55.769Z,2.08
2022-09-26T17:05:25.438Z,2.60
2022-09-26T17:07:55.051Z,2.05
2022-09-26T17:10:28.409Z,3.03
2022-09-26T17:13:02.740Z,2.38
2022-09-26T17:15:35.503Z,2.00
2022-09-26T17:18:10.665Z,2.53
2022-09-26T17:20:41.881Z,2.83
2022-09-26T17:23:34.948Z,1.83
2022-09-26T17:26:02.968Z,2.22
2022-09-26T17:28:38.267Z,2.17
2022-09-26T17:31:10.311Z,2.25
2022-09-26T17:33:44.346Z,2.33
2022-09-26T17:36:21.017Z,2.30
2022-09-26T17:38:50.726Z,3.38
2022-09-26T17:41:20.404Z,1.98
2022-09-26T17:43:59.003Z,1.77
2022-09-26T17:46:28.945Z,1.40
2022-09-26T17:49:05.302Z,2.28
2022-09-26T17:51:36.279Z,2.20
2022-09-26T17:54:07.622Z,1.60
2022-09-26T17:56:37.266Z,2.00
2022-09-26T17:59:09.510Z,2.20
2022-09-26T18:01:39.308Z,2.08
2022-09-26T18:04:17.544Z,1.90
2022-09-26T18:06:47.642Z,2.10
2022-09-26T18:09:18.524Z,2.13
2022-09-26T18:12:01.109Z,2.78
2022-09-26T18:14:33.371Z,2.25
2022-09-26T18:17:04.334Z,2.33
2022-09-26T18:19:38.329Z,2.03
2022-09-26T18:22:12.155Z,2.60
2022-09-26T18:24:41.810Z,2.28
2022-09-26T18:27:17.868Z,2.67
2022-09-26T18:29:50.070Z,2.88
2022-09-26T18:32:26.088Z,2.25
2022-09-26T18:34:58.301Z,2.20
2022-09-26T18:37:29.336Z,1.65
2022-09-26T18:40:03.817Z,1.80
2022-09-26T18:42:35.341Z,1.35
2022-09-26T18:45:08.237Z,2.95
2022-09-26T18:47:42.561Z,4.03
2022-09-26T18:50:24.725Z,2.38
2022-09-26T18:52:54.344Z,1.95
2022-09-26T18:55:38.557Z,2.55
2022-09-26T18:58:20.662Z,1.48
2022-09-26T19:00:50.869Z,2.22
2022-09-26T19:03:21.248Z,2.17
2022-09-26T19:05:54.972Z,2.33
2022-09-26T19:11:13.049Z,2.40
2022-09-26T19:13:43.230Z,1.65
2022-09-26T19:16:14.335Z,1.70
2022-09-26T19:18:45.227Z,1.65
2022-09-26T19:21:26.817Z,1.60
2022-09-26T19:23:56.859Z,1.95
2022-09-26T19:26:30.158Z,1.95
2022-09-26T19:29:02.043Z,1.80
2022-09-26T19:31:32.134Z,1.67
2022-09-26T19:34:01.771Z,2.08
2022-09-26T19:36:34.128Z,2.33
2022-09-26T19:39:04.231Z,2.78
2022-09-26T19:41:34.080Z,2.13
2022-09-26T19:44:05.654Z,9.88
2022-09-26T19:46:35.370Z,1.92
2022-09-26T19:49:05.410Z,1.88
2022-09-26T19:51:41.142Z,2.22
2022-09-26T19:54:16.786Z,1.75
2022-09-26T19:56:46.928Z,1.35
2022-09-26T19:59:17.501Z,1.60
2022-09-26T20:01:48.853Z,1.67
2022-09-26T20:04:21.376Z,2.45
2022-09-26T20:06:53.688Z,3.30
2022-09-26T20:09:23.260Z,1.50
2022-09-26T20:11:52.778Z,1.63
2022-09-26T20:14:28.039Z,1.70
2022-09-26T20:17:00.720Z,1.70
2022-09-26T20:19:36.364Z,2.28
2022-09-26T20:22:14.549Z,1.45
2022-09-26T20:24:44.452Z,1.63
2022-09-26T20:27:20.066Z,1.65
2022-09-26T20:30:03.025Z,1.52
2022-09-26T20:32:32.770Z,1.60
2022-09-26T20:35:03.214Z,1.70
2022-09-26T20:37:39.339Z,1.90
2022-09-26T20:40:18.194Z,1.27
2022-09-26T20:42:50.910Z,1.50
2022-09-26T20:45:23.778Z,2.28
2022-09-26T20:47:53.376Z,1.50
2022-09-26T20:50:23.319Z,1.83
2022-09-26T20:52:55.434Z,1.52
2022-09-26T20:55:25.428Z,1.52
2022-09-26T20:57:55.074Z,1.73
2022-09-26T21:00:27.382Z,1.40
2022-09-26T21:02:57.333Z,2.03
2022-09-26T21:05:29.684Z,1.33
2022-09-26T21:08:03.169Z,1.10
2022-09-26T21:10:34.730Z,1.60
2022-09-26T21:13:05.218Z,1.20
2022-09-26T21:15:36.358Z,1.17
2022-09-26T21:18:06.103Z,1.55
2022-09-26T21:20:37.198Z,1.50
2022-09-26T21:23:13.007Z,1.60
2022-09-26T21:25:42.553Z,1.95
2022-09-26T21:28:26.299Z,1.30
2022-09-26T21:30:57.482Z,2.00
2022-09-26T21:33:27.439Z,1.35
2022-09-26T21:35:57.039Z,1.80
2022-09-26T21:38:29.243Z,2.20
2022-09-26T21:41:02.266Z,1.70
2022-09-26T21:43:36.181Z,1.00
2022-09-26T21:46:06.122Z,1.50
2022-09-26T21:48:36.369Z,1.00
2022-09-26T21:51:07.818Z,1.42
2022-09-26T21:53:46.067Z,1.30
2022-09-26T21:56:22.217Z,1.00
2022-09-26T21:58:53.223Z,1.20
2022-09-26T22:01:22.838Z,1.23
2022-09-26T22:03:53.043Z,1.73
2022-09-26T22:06:22.698Z,1.20
2022-09-26T22:08:54.848Z,1.63
2022-09-26T22:11:24.403Z,1.88
2022-09-26T22:13:54.178Z,1.20
2022-09-26T22:16:23.788Z,1.73
2022-09-26T22:18:53.371Z,1.58
2022-09-26T22:21:23.290Z,1.27
2022-09-26T22:23:56.112Z,1.33
2022-09-26T22:26:26.423Z,1.20
2022-09-26T22:28:55.968Z,1.65
2022-09-26T22:31:25.634Z,1.48
2022-09-26T22:33:58.403Z,1.30
2022-09-26T22:36:28.548Z,1.83
2022-09-26T22:39:04.439Z,1.38
2022-09-26T22:41:34.282Z,1.48
2022-09-26T22:44:06.796Z,1.33
2022-09-26T22:46:37.132Z,0.95
2022-09-26T22:49:06.950Z,1.00
2022-09-26T22:51:36.646Z,0.88
2022-09-26T22:54:08.842Z,0.95
2022-09-26T22:56:38.803Z,1.58
2022-09-26T22:59:08.840Z,1.80
2022-09-26T23:01:38.992Z,1.20
2022-09-26T23:04:08.908Z,1.55
2022-09-26T23:06:38.805Z,1.30
2022-09-26T23:09:11.443Z,1.52
2022-09-26T23:11:41.074Z,1.13
2022-09-26T23:14:11.002Z,1.63
2022-09-26T23:16:40.882Z,1.60
2022-09-26T23:19:10.507Z,1.40
2022-09-26T23:21:40.270Z,1.10
2022-09-26T23:24:12.738Z,1.38
2022-09-26T23:26:42.270Z,1.48
2022-09-26T23:29:11.997Z,2.38
2022-09-26T23:31:41.668Z,1.23
2022-09-26T23:34:11.889Z,1.38
2022-09-26T23:36:41.550Z,1.38
2022-09-26T23:39:13.995Z,1.60
2022-09-26T23:41:43.580Z,1.65
2022-09-26T23:44:13.177Z,1.40
2022-09-26T23:46:42.744Z,1.73
2022-09-26T23:49:12.277Z,1.50
2022-09-26T23:51:42.596Z,1.27
2022-09-26T23:54:14.800Z,2.50
2022-09-26T23:56:44.482Z,1.40
2022-09-26T23:59:14.195Z,1.63
